Nearby METAR Reports


KSYR - Syracuse, New York, USA
Distance from station: SE 5mi, 8km
Updated: Mon, 25-Jun-2018 10:54am EDT
Few Clouds
Few Clouds
 Wind from WNW
Wind: WNW 12 mph , 19 km/h
Temperature: 66°F , 19°C
Dew Point: 54°F , 12°C
Humidity: 64%
Barometer: 30.14 inHg , 1020.7 hPa
Clouds: Few Clouds
Visibility: 10 miles , 16 km
Cloud details: Few Clouds 2400 ft
2018/06/25 14:54 KSYR 251454Z 30010KT 10SM FEW024 19/12 A3014 RMK AO2 SLP201 T01890122 53018
KFZY - Fulton, New York, USA
Distance from station: NW 17mi, 27km
Updated: Mon, 25-Jun-2018 10:54am EDT
Clear
Clear
 Wind from NW
Wind: NW 10 mph , 17 km/h
Temperature: 66°F , 19°C
Dew Point: 50°F , 10°C
Humidity: 56%
Barometer: 30.16 inHg , 1021.3 hPa
Clouds: Clear
Visibility: 10 miles , 16 km
2018/06/25 14:54 KFZY 251454Z AUTO 31009KT 10SM CLR 19/10 A3016 RMK AO2 SLP212 T01890100 51020
 
KRME - Rome/Griffiss Af, New York, USA
Distance from station: E 39mi, 62km
Updated: Mon, 25-Jun-2018 10:53am EDT
Few Clouds
Few Clouds
 Wind from W
Wind: W 7 mph , 11 km/h
Temperature: 68°F , 20°C
Dew Point: 55°F , 13°C
Humidity: 64%
Barometer: 30.12 inHg , 1020 hPa
Clouds: Few Clouds
Visibility: 10 miles , 16 km
Cloud details: Few Clouds 2900 ft
Few Clouds 4900 ft
2018/06/25 14:53 KRME 251453Z 26006KT 10SM FEW029 FEW049 20/13 A3012 RMK AO2 SLP197 T02000133 51014
KITH - Ithaca/Tompkins, New York, USA
Distance from station: SSW 51mi, 82km
Updated: Mon, 25-Jun-2018 10:56am EDT
Mostly cloudy
Mostly cloudy
 Wind from NW
Wind: NW 12 mph , 19 km/h
Temperature: 64°F , 18°C
Dew Point: 55°F , 13°C
Humidity: 73%
Barometer: 30.16 inHg , 1021.3 hPa
Clouds: Mostly cloudy
Visibility: 10 miles , 16 km
Cloud details: Mostly cloudy 2000 ft
2018/06/25 14:56 KITH 251456Z 31010KT 10SM BKN020 18/13 A3016 RMK AO2 SLP211 T01780133 51015
 
KART - Watertown, New York, USA
Distance from station: N 56mi, 91km
Updated: Mon, 25-Jun-2018 10:56am EDT
Clear
Clear
 Wind from calm
Wind: Calm
Temperature: 66°F , 19°C
Dew Point: 50°F , 10°C
Humidity: 56%
Barometer: 30.15 inHg , 1021 hPa
Clouds: Clear
Visibility: 10 miles , 16 km
2018/06/25 14:56 KART 251456Z AUTO 00000KT 10SM CLR 19/10 A3015 RMK AO2 SLP206 T01890100 51019
KPEO - Penn Yan, New York, USA
Distance from station: SW 58mi, 93km
Updated: Mon, 25-Jun-2018 10:53am EDT
Clear
Clear
 Wind from varies
Wind: varies 5 mph , 7 km/h
Temperature: 66°F , 19°C
Dew Point: 48°F , 9°C
Humidity: 52%
Barometer: 30.18 inHg , 1022 hPa
Clouds: Clear
Visibility: 10 miles , 16 km
2018/06/25 14:53 KPEO 251453Z AUTO VRB04KT 10SM CLR 19/09 A3018 RMK AO2 SLP215 T01940094 53010
 
KGTB - Fort Drum/Wheele, New York, USA
Distance from station: NNE 64mi, 102km
Updated: Mon, 25-Jun-2018 10:56am EDT
Clear
Clear
 Wind from N
Wind: N 9 mph , 15 km/h
Temperature: 64°F , 18°C
Dew Point: 48°F , 9°C
Humidity: 56%
Barometer: 30.15 inHg , 1021 hPa
Clouds: Clear
Visibility: 10 miles , 16 km
2018/06/25 14:56 KGTB 251456Z 35008KT 10SM CLR 18/09 A3015 RMK AO2A SLPNO ALTSG ESTMD T01750094 $
CWQP - Point Petre (mar, Ontario, Canada
Distance from station: NW 67mi, 107km
Updated: Mon, 25-Jun-2018 11:00am EDT

 Wind from NW
Wind: NW 10 mph , 17 km/h
Temperature: 66°F , 19°C
Dew Point: 48°F , 9°C
Humidity: 52%
2018/06/25 15:00 CWQP 251500Z AUTO 31009KT 19/09 RMK AO1 SLP216 T01930086 51018
 
KBGM - Binghamton, New York, USA
Distance from station: S 67mi, 107km
Updated: Mon, 25-Jun-2018 10:53am EDT
Few Clouds
Few Clouds
 Wind from NW
Wind: NW 12 mph , 19 km/h
Temperature: 63°F , 17°C
Dew Point: 50°F , 10°C
Humidity: 64%
Barometer: 30.13 inHg , 1020.3 hPa
Clouds: Few Clouds
Visibility: 10 miles , 16 km
Cloud details: Few Clouds 3000 ft
2018/06/25 14:53 KBGM 251453Z 32010KT 10SM FEW030 17/10 A3013 RMK AO2 SLP199 T01720100 51017
CYGK - Kingston Arpt (m, Ontario, Canada
Distance from station: NNW 75mi, 121km
Updated: Mon, 25-Jun-2018 11:00am EDT
Few Clouds
Few Clouds
 Wind from N
Wind: N 12 mph , 19 km/h, Gust: 18 mph , 30 km/h
Temperature: 68°F , 20°C
Dew Point: 41°F , 5°C
Humidity: 38%
Barometer: 30.15 inHg , 1021 hPa
Clouds: Few Clouds
Visibility: 15 miles , 24 km
Cloud details: Few Clouds 4000 ft
Few Clouds 25000 ft
2018/06/25 15:00 CYGK 251500Z 01010G16KT 310V020 15SM FEW040 FEW250 20/05 A3015 RMK CU1CI1 CU TR CI TR SLP212 DENSITY ALT 800FT